createdAt,value
2019-05-11T15:13:01.181Z,16.07
2019-05-11T15:15:33.767Z,16.23
2019-05-11T15:18:04.117Z,16.36
2019-05-11T15:20:34.416Z,16.38
2019-05-11T15:23:05.127Z,16.37
2019-05-11T15:25:38.208Z,16.36
2019-05-11T15:28:08.976Z,16.33
2019-05-11T15:30:39.778Z,16.32
2019-05-11T15:33:10.267Z,16.30
2019-05-11T15:35:40.677Z,16.29
2019-05-11T15:38:10.860Z,16.28
2019-05-11T15:40:40.928Z,16.27
2019-05-11T15:43:10.926Z,16.27
2019-05-11T15:45:40.920Z,16.27
2019-05-11T15:48:11.241Z,16.27
2019-05-11T15:50:41.302Z,16.25
2019-05-11T15:53:12.000Z,16.24
2019-05-11T15:55:42.652Z,16.23
2019-05-11T15:58:13.214Z,16.21
2019-05-11T16:00:43.835Z,16.19
2019-05-11T16:03:13.712Z,16.18
2019-05-11T16:05:43.885Z,16.17
2019-05-11T16:08:14.101Z,16.17
2019-05-11T16:10:44.206Z,16.18
2019-05-11T16:13:14.484Z,16.19
2019-05-11T16:15:47.559Z,16.20
2019-05-11T16:18:18.857Z,16.20
2019-05-11T16:20:50.294Z,16.21
2019-05-11T16:23:20.693Z,16.21
2019-05-11T16:25:50.837Z,16.22
2019-05-11T16:28:21.247Z,16.23
2019-05-11T16:30:51.723Z,16.24
2019-05-11T16:33:22.216Z,16.24
2019-05-11T16:35:52.482Z,16.24
2019-05-11T16:38:23.141Z,16.26
2019-05-11T16:40:53.433Z,16.26
2019-05-11T16:43:24.100Z,16.28
2019-05-11T16:45:54.413Z,16.27
2019-05-11T16:48:24.814Z,16.29
2019-05-11T16:50:54.786Z,16.29
2019-05-11T16:53:25.198Z,16.30
2019-05-11T16:55:57.615Z,16.30
2019-05-11T16:58:27.958Z,16.31
2019-05-11T17:00:58.543Z,16.32
2019-05-11T17:03:28.824Z,16.32
2019-05-11T17:05:59.211Z,16.32
2019-05-11T17:08:29.386Z,16.32
2019-05-11T17:10:59.690Z,16.33
2019-05-11T17:13:30.389Z,16.33
2019-05-11T17:16:00.896Z,16.33
2019-05-11T17:18:31.522Z,16.33
2019-05-11T17:21:02.189Z,16.33
2019-05-11T17:23:32.726Z,16.33
2019-05-11T17:26:03.007Z,16.33
2019-05-11T17:28:33.442Z,16.33
2019-05-11T17:31:03.630Z,16.34
2019-05-11T17:33:34.247Z,16.33
2019-05-11T17:36:04.822Z,16.33
2019-05-11T17:38:35.268Z,16.33
2019-05-11T17:41:08.319Z,16.33
2019-05-11T17:43:38.684Z,16.34
2019-05-11T17:46:09.502Z,16.33
2019-05-11T17:48:39.865Z,16.34
2019-05-11T17:51:21.466Z,16.34
2019-05-11T17:53:42.567Z,16.34
2019-05-11T17:56:13.201Z,16.36
2019-05-11T17:58:43.559Z,16.35
2019-05-11T18:01:13.835Z,16.35
2019-05-11T18:03:44.387Z,16.35
2019-05-11T18:06:14.706Z,16.35
2019-05-11T18:08:44.909Z,16.35
2019-05-11T18:11:15.145Z,16.34
2019-05-11T18:13:45.227Z,16.35
2019-05-11T18:16:15.362Z,16.35
2019-05-11T18:18:45.304Z,16.36
2019-05-11T18:21:15.299Z,16.35
2019-05-11T18:23:48.041Z,16.36
2019-05-11T18:26:18.557Z,16.35
2019-05-11T18:28:49.370Z,16.36
2019-05-11T18:31:19.712Z,16.35
2019-05-11T18:33:49.915Z,16.35
2019-05-11T18:36:20.544Z,16.35
2019-05-11T18:38:51.079Z,16.35
2019-05-11T18:41:21.726Z,16.34
2019-05-11T18:43:52.248Z,16.36
2019-05-11T18:46:22.459Z,16.35
2019-05-11T18:48:52.723Z,16.35
2019-05-11T18:51:22.822Z,16.34
2019-05-11T18:53:53.146Z,16.36
2019-05-11T18:56:23.399Z,16.36
2019-05-11T18:58:53.707Z,16.36
2019-05-11T19:01:23.815Z,16.37
2019-05-11T19:03:54.209Z,16.36
2019-05-11T19:06:24.713Z,16.37
2019-05-11T19:08:54.976Z,16.37
2019-05-11T19:11:25.234Z,16.36
2019-05-11T19:13:58.171Z,16.36
2019-05-11T19:16:28.880Z,16.37
2019-05-11T19:18:58.632Z,16.36
2019-05-11T19:21:29.048Z,16.37
2019-05-11T19:23:59.231Z,16.35
2019-05-11T19:26:29.673Z,16.36
2019-05-11T19:29:00.743Z,16.36
2019-05-11T19:31:30.630Z,16.36
2019-05-11T19:34:00.648Z,16.35
2019-05-11T19:36:30.532Z,16.36
2019-05-11T19:39:00.851Z,16.35
2019-05-11T19:41:30.413Z,16.35
2019-05-11T19:44:00.023Z,16.36
2019-05-11T19:46:29.711Z,16.34
2019-05-11T19:48:59.282Z,16.35
2019-05-11T19:51:29.209Z,16.35
2019-05-11T19:53:58.817Z,16.34
2019-05-11T19:56:28.930Z,16.34
2019-05-11T19:58:58.623Z,16.34
2019-05-11T20:01:28.142Z,16.33
2019-05-11T20:03:57.600Z,16.33
2019-05-11T20:06:28.095Z,16.31
2019-05-11T20:08:58.205Z,16.32
2019-05-11T20:11:28.083Z,16.32
2019-05-11T20:13:59.020Z,16.31
2019-05-11T20:16:28.676Z,16.30
2019-05-11T20:18:58.180Z,16.30
2019-05-11T20:21:29.011Z,16.29
2019-05-11T20:23:58.806Z,16.30
2019-05-11T20:26:28.686Z,16.29
2019-05-11T20:28:58.849Z,16.29
2019-05-11T20:31:28.292Z,16.28
2019-05-11T20:33:57.799Z,16.27
2019-05-11T20:36:27.333Z,16.27
2019-05-11T20:38:56.924Z,16.27
2019-05-11T20:41:27.949Z,16.25
2019-05-11T20:43:58.047Z,16.26
2019-05-11T20:46:27.868Z,16.25
2019-05-11T20:48:57.947Z,16.25
2019-05-11T20:51:36.289Z,16.25
2019-05-11T20:53:58.650Z,16.24
2019-05-11T20:56:28.458Z,16.24
2019-05-11T20:58:59.946Z,16.23
2019-05-11T21:01:29.608Z,16.23
2019-05-11T21:03:59.097Z,16.23
2019-05-11T21:06:29.664Z,16.24
